Thursday, July 19, 2018, 1:30 AM EDT
Back to Local

KMSS, Massena International -richards Fld

Location: Massena, NY, United States Lat: 44.933
Local Time: 1:30 AM EDT ( 5:30 GMT) Lon: -74.85
Time Zone: US/Eastern Elev: 213 ft

Show me the last for .
Show Decoded

2018-07-19 00:53 METAR KMSS 190453Z AUTO 00000KT 10SM CLR 11/11 A3005 RMK AO2 SLP176 T01110106
                 402440111 =
2018-07-18 23:53 METAR KMSS 190353Z AUTO 00000KT 10SM CLR 12/11 A3004 RMK AO2 SLP173 T01170111 =
2018-07-18 22:53 METAR KMSS 190253Z AUTO 00000KT 10SM CLR 13/12 A3004 RMK AO2 SLP173 T01330117
                 53011 =
2018-07-18 21:53 METAR KMSS 190153Z AUTO 00000KT 10SM CLR 14/12 A3003 RMK AO2 SLP170 T01440122 =
2018-07-18 20:53 METAR KMSS 190053Z AUTO 00000KT 10SM CLR 16/12 A3001 RMK AO2 SLP162 T01610122 =
2018-07-18 19:53 METAR KMSS 182353Z AUTO 34005KT 10SM CLR 22/09 A3001 RMK AO2 SLP161 T02220089
                 10244 20222 53003 =
2018-07-18 18:53 METAR KMSS 182253Z AUTO 34007KT 10SM CLR 23/08 A3000 RMK AO2 SLP158 T02330083 =
2018-07-18 17:53 METAR KMSS 182153Z AUTO 28007KT 10SM CLR 24/07 A3000 RMK AO2 SLP157 T02390072 =
2018-07-18 16:53 METAR KMSS 182053Z AUTO 35007KT 10SM CLR 24/08 A3000 RMK AO2 SLP158 T02440083
                 56008 =
2018-07-18 15:53 METAR KMSS 181953Z AUTO 31009KT 10SM CLR 24/08 A3001 RMK AO2 SLP161 T02390083 =
2018-07-18 14:53 METAR KMSS 181853Z AUTO VRB05KT 10SM CLR 23/08 A3001 RMK AO2 SLP162 T02330078 =
2018-07-18 13:53 METAR KMSS 181753Z AUTO 30008G16KT 10SM CLR 23/08 A3002 RMK AO2 SLP165 T02280078
                 10228 20167 58008 =
2018-07-18 12:53 METAR KMSS 181653Z AUTO VRB06KT 10SM CLR 22/07 A3003 RMK AO2 SLP168 T02220072 =
2018-07-18 11:53 METAR KMSS 181553Z AUTO VRB06KT 10SM CLR 21/06 A3004 RMK AO2 SLP172 T02110061 =
2018-07-18 10:53 METAR KMSS 181453Z AUTO 30007KT 10SM CLR 19/07 A3005 RMK AO2 SLP174 T01940067
                 51003 =
2018-07-18 09:53 METAR KMSS 181353Z AUTO 29007KT 10SM CLR 19/09 A3005 RMK AO2 SLP174 T01890089 =
2018-07-18 08:53 METAR KMSS 181253Z AUTO 35009KT 10SM CLR 18/08 A3004 RMK AO2 SLP171 T01780083 =
2018-07-18 07:53 METAR KMSS 181153Z AUTO 33010KT 10SM CLR 17/09 A3004 RMK AO2 SLP170 T01670089
                 10178 20150 51020 =
2018-07-18 06:53 METAR KMSS 181053Z AUTO 33007KT 10SM CLR 16/09 A3002 RMK AO2 SLP164 T01610094 =
2018-07-18 05:53 METAR KMSS 180953Z AUTO 33005KT 10SM CLR 15/09 A3000 RMK AO2 SLP157 T01500094 =
2018-07-18 04:53 METAR KMSS 180853Z AUTO 33007KT 10SM CLR 16/11 A2998 RMK AO2 SLP150 T01560106
                 51016 =
2018-07-18 03:53 METAR KMSS 180753Z AUTO 34006KT 10SM CLR 16/12 A2997 RMK AO2 SLP147 T01560117 =
2018-07-18 02:53 METAR KMSS 180653Z AUTO 02003KT 10SM CLR 17/12 A2995 RMK AO2 SLP141 T01670117 =
2018-07-18 01:53 METAR KMSS 180553Z AUTO 35006KT 10SM CLR 18/13 A2993 RMK AO2 SLP133 T01780128
                 10250 20178 51019 =

Support USWX by starting your Amazon purchase here.